East Marion, New York
Current Conditions -  °F | °C
As of 9:15 PM on Thursday 20 Nov 2014 (Local Time) from KSNC Reporting Station
Clear Clear  
Wind Chill: 28°   Ceiling: Unl
Heat Index: 34°   Visibility: 10mi
Dew Point: 10°   Wind: 7mph
Humidity: 38%   Direction: 290°WNW
Pressure: 29.91"   Gusts: 16mph
Location:  41.13°N, 72.34°W
Report Text: KSNC 210215Z AUTO 29006G14KT 010V020 10SM CLR 01/M12 A2991 RMK AO2
Loading
Personal Weather Stations






























Interactive Weather Map New forecast layout! Learn more

10-Day Weather Forecast

Advertisements
Track Severe Weather on mobile